sensor_id;sensor_type;location;lat;lon;timestamp;P1;durP1;ratioP1;P2;durP2;ratioP2
5077;SDS011;2557;51.390;7.494;2023-03-01T00:01:22;13.18;;;10.55;;
5077;SDS011;2557;51.390;7.494;2023-03-01T00:03:49;18.75;;;11.95;;
5077;SDS011;2557;51.390;7.494;2023-03-01T00:06:15;12.38;;;11.05;;
5077;SDS011;2557;51.390;7.494;2023-03-01T00:08:41;15.90;;;10.63;;
5077;SDS011;2557;51.390;7.494;2023-03-01T00:13:33;16.00;;;11.70;;
5077;SDS011;2557;51.390;7.494;2023-03-01T00:16:01;20.88;;;11.50;;
5077;SDS011;2557;51.390;7.494;2023-03-01T00:18:27;13.23;;;11.68;;
5077;SDS011;2557;51.390;7.494;2023-03-01T00:20:54;17.45;;;11.48;;
5077;SDS011;2557;51.390;7.494;2023-03-01T00:23:20;24.67;;;11.32;;
5077;SDS011;2557;51.390;7.494;2023-03-01T00:25:46;17.50;;;10.35;;
5077;SDS011;2557;51.390;7.494;2023-03-01T00:28:13;16.02;;;9.88;;
5077;SDS011;2557;51.390;7.494;2023-03-01T00:30:39;18.92;;;11.50;;
5077;SDS011;2557;51.390;7.494;2023-03-01T00:33:05;20.23;;;12.32;;
5077;SDS011;2557;51.390;7.494;2023-03-01T00:35:34;16.80;;;12.53;;
5077;SDS011;2557;51.390;7.494;2023-03-01T00:38:00;17.58;;;11.60;;
5077;SDS011;2557;51.390;7.494;2023-03-01T00:40:27;13.93;;;9.50;;
5077;SDS011;2557;51.390;7.494;2023-03-01T00:42:53;17.73;;;11.68;;
5077;SDS011;2557;51.390;7.494;2023-03-01T00:45:20;14.07;;;10.75;;
5077;SDS011;2557;51.390;7.494;2023-03-01T00:47:46;16.40;;;11.10;;
5077;SDS011;2557;51.390;7.494;2023-03-01T00:50:12;14.40;;;11.07;;
5077;SDS011;2557;51.390;7.494;2023-03-01T00:52:38;16.75;;;11.70;;
5077;SDS011;2557;51.390;7.494;2023-03-01T00:55:04;13.53;;;9.53;;
5077;SDS011;2557;51.390;7.494;2023-03-01T00:57:30;16.60;;;11.88;;
5077;SDS011;2557;51.390;7.494;2023-03-01T00:59:57;17.40;;;12.77;;
5077;SDS011;2557;51.390;7.494;2023-03-01T01:02:23;19.85;;;11.90;;
5077;SDS011;2557;51.390;7.494;2023-03-01T01:04:49;16.48;;;11.18;;
5077;SDS011;2557;51.390;7.494;2023-03-01T01:07:15;20.02;;;11.88;;
5077;SDS011;2557;51.390;7.494;2023-03-01T01:09:41;20.38;;;11.70;;
5077;SDS011;2557;51.390;7.494;2023-03-01T01:12:07;17.52;;;11.10;;
5077;SDS011;2557;51.390;7.494;2023-03-01T01:14:33;16.30;;;11.80;;
5077;SDS011;2557;51.390;7.494;2023-03-01T01:17:00;20.55;;;11.18;;
5077;SDS011;2557;51.390;7.494;2023-03-01T01:19:26;16.02;;;11.13;;
5077;SDS011;2557;51.390;7.494;2023-03-01T01:21:52;23.10;;;11.27;;
5077;SDS011;2557;51.390;7.494;2023-03-01T01:24:18;16.95;;;9.80;;
5077;SDS011;2557;51.390;7.494;2023-03-01T01:26:44;19.58;;;11.90;;
5077;SDS011;2557;51.390;7.494;2023-03-01T01:29:11;17.27;;;11.68;;
5077;SDS011;2557;51.390;7.494;2023-03-01T01:31:37;21.05;;;11.15;;
5077;SDS011;2557;51.390;7.494;2023-03-01T01:34:04;23.17;;;13.63;;
5077;SDS011;2557;51.390;7.494;2023-03-01T01:36:30;22.80;;;13.45;;
5077;SDS011;2557;51.390;7.494;2023-03-01T01:38:57;27.33;;;13.10;;
5077;SDS011;2557;51.390;7.494;2023-03-01T01:41:24;21.83;;;12.80;;
5077;SDS011;2557;51.390;7.494;2023-03-01T01:46:36;23.88;;;13.75;;
5077;SDS011;2557;51.390;7.494;2023-03-01T01:49:07;19.75;;;13.38;;
5077;SDS011;2557;51.390;7.494;2023-03-01T01:51:37;24.90;;;14.85;;
5077;SDS011;2557;51.390;7.494;2023-03-01T01:57:03;18.02;;;12.65;;
5077;SDS011;2557;51.390;7.494;2023-03-01T01:59:32;15.45;;;11.68;;
5077;SDS011;2557;51.390;7.494;2023-03-01T02:01:59;18.10;;;12.13;;
5077;SDS011;2557;51.390;7.494;2023-03-01T02:04:26;16.67;;;10.70;;
5077;SDS011;2557;51.390;7.494;2023-03-01T02:06:58;18.83;;;13.23;;
5077;SDS011;2557;51.390;7.494;2023-03-01T02:09:25;23.10;;;11.65;;
5077;SDS011;2557;51.390;7.494;2023-03-01T02:11:52;15.48;;;11.45;;
5077;SDS011;2557;51.390;7.494;2023-03-01T02:14:19;32.05;;;13.75;;
5077;SDS011;2557;51.390;7.494;2023-03-01T02:16:45;14.15;;;11.35;;
5077;SDS011;2557;51.390;7.494;2023-03-01T02:19:16;17.85;;;12.07;;
5077;SDS011;2557;51.390;7.494;2023-03-01T02:21:52;20.90;;;12.40;;
5077;SDS011;2557;51.390;7.494;2023-03-01T02:24:31;14.48;;;11.25;;
5077;SDS011;2557;51.390;7.494;2023-03-01T02:26:57;17.75;;;12.48;;
5077;SDS011;2557;51.390;7.494;2023-03-01T02:29:24;16.02;;;11.25;;
5077;SDS011;2557;51.390;7.494;2023-03-01T02:31:51;16.20;;;11.30;;
5077;SDS011;2557;51.390;7.494;2023-03-01T02:34:19;17.70;;;11.52;;
5077;SDS011;2557;51.390;7.494;2023-03-01T02:36:47;21.48;;;11.13;;
5077;SDS011;2557;51.390;7.494;2023-03-01T02:39:14;23.33;;;13.48;;
5077;SDS011;2557;51.390;7.494;2023-03-01T02:41:42;19.08;;;11.02;;
5077;SDS011;2557;51.390;7.494;2023-03-01T02:44:09;19.27;;;11.70;;
5077;SDS011;2557;51.390;7.494;2023-03-01T02:46:41;16.38;;;10.57;;
5077;SDS011;2557;51.390;7.494;2023-03-01T02:49:27;12.68;;;10.27;;
5077;SDS011;2557;51.390;7.494;2023-03-01T02:54:28;16.35;;;12.10;;
5077;SDS011;2557;51.390;7.494;2023-03-01T02:56:56;17.65;;;13.05;;
5077;SDS011;2557;51.390;7.494;2023-03-01T02:59:24;21.90;;;12.10;;
5077;SDS011;2557;51.390;7.494;2023-03-01T03:01:52;19.30;;;13.48;;
5077;SDS011;2557;51.390;7.494;2023-03-01T03:04:18;18.90;;;12.35;;
5077;SDS011;2557;51.390;7.494;2023-03-01T03:06:46;16.55;;;10.25;;
5077;SDS011;2557;51.390;7.494;2023-03-01T03:09:12;16.50;;;10.63;;
5077;SDS011;2557;51.390;7.494;2023-03-01T03:11:38;19.70;;;12.70;;
5077;SDS011;2557;51.390;7.494;2023-03-01T03:14:05;23.08;;;10.88;;
5077;SDS011;2557;51.390;7.494;2023-03-01T03:16:37;16.73;;;10.23;;
5077;SDS011;2557;51.390;7.494;2023-03-01T03:19:03;17.83;;;10.30;;
5077;SDS011;2557;51.390;7.494;2023-03-01T03:21:30;14.30;;;9.68;;
5077;SDS011;2557;51.390;7.494;2023-03-01T03:23:56;13.18;;;9.98;;
5077;SDS011;2557;51.390;7.494;2023-03-01T03:26:22;26.05;;;11.70;;
5077;SDS011;2557;51.390;7.494;2023-03-01T03:28:48;20.63;;;10.68;;
5077;SDS011;2557;51.390;7.494;2023-03-01T03:31:14;13.77;;;10.05;;
5077;SDS011;2557;51.390;7.494;2023-03-01T03:33:40;19.98;;;10.63;;
5077;SDS011;2557;51.390;7.494;2023-03-01T03:36:06;13.20;;;10.23;;
5077;SDS011;2557;51.390;7.494;2023-03-01T03:38:37;13.25;;;9.15;;
5077;SDS011;2557;51.390;7.494;2023-03-01T03:41:04;17.33;;;10.80;;
5077;SDS011;2557;51.390;7.494;2023-03-01T03:43:32;17.55;;;12.35;;
5077;SDS011;2557;51.390;7.494;2023-03-01T03:45:59;12.95;;;10.23;;
5077;SDS011;2557;51.390;7.494;2023-03-01T03:48:25;15.93;;;9.60;;
5077;SDS011;2557;51.390;7.494;2023-03-01T03:50:53;13.70;;;9.30;;
5077;SDS011;2557;51.390;7.494;2023-03-01T03:53:19;16.92;;;11.25;;
5077;SDS011;2557;51.390;7.494;2023-03-01T03:55:46;18.13;;;10.63;;
5077;SDS011;2557;51.390;7.494;2023-03-01T03:58:14;19.33;;;10.05;;
5077;SDS011;2557;51.390;7.494;2023-03-01T04:00:42;16.52;;;11.05;;
5077;SDS011;2557;51.390;7.494;2023-03-01T04:03:08;15.43;;;11.65;;
5077;SDS011;2557;51.390;7.494;2023-03-01T04:05:35;18.08;;;11.93;;
5077;SDS011;2557;51.390;7.494;2023-03-01T04:08:01;19.70;;;10.75;;
5077;SDS011;2557;51.390;7.494;2023-03-01T04:10:28;15.02;;;10.18;;
5077;SDS011;2557;51.390;7.494;2023-03-01T04:12:55;20.10;;;12.23;;
5077;SDS011;2557;51.390;7.494;2023-03-01T04:15:22;14.85;;;9.13;;
5077;SDS011;2557;51.390;7.494;2023-03-01T04:17:48;16.95;;;10.27;;
5077;SDS011;2557;51.390;7.494;2023-03-01T04:20:16;21.60;;;11.80;;
5077;SDS011;2557;51.390;7.494;2023-03-01T04:22:42;16.27;;;11.10;;
5077;SDS011;2557;51.390;7.494;2023-03-01T04:25:11;21.20;;;10.90;;
5077;SDS011;2557;51.390;7.494;2023-03-01T04:27:39;18.60;;;11.18;;
5077;SDS011;2557;51.390;7.494;2023-03-01T04:30:06;18.40;;;12.18;;
5077;SDS011;2557;51.390;7.494;2023-03-01T04:32:32;20.88;;;11.18;;
5077;SDS011;2557;51.390;7.494;2023-03-01T04:34:58;20.55;;;13.02;;
5077;SDS011;2557;51.390;7.494;2023-03-01T04:37:25;15.57;;;10.98;;
5077;SDS011;2557;51.390;7.494;2023-03-01T04:39:51;16.50;;;10.80;;
5077;SDS011;2557;51.390;7.494;2023-03-01T04:42:17;18.00;;;11.50;;
5077;SDS011;2557;51.390;7.494;2023-03-01T04:44:43;24.00;;;12.25;;
5077;SDS011;2557;51.390;7.494;2023-03-01T04:47:09;19.50;;;12.13;;
5077;SDS011;2557;51.390;7.494;2023-03-01T04:49:35;20.95;;;10.43;;
5077;SDS011;2557;51.390;7.494;2023-03-01T04:52:02;15.55;;;11.10;;
5077;SDS011;2557;51.390;7.494;2023-03-01T04:54:33;16.60;;;12.05;;
5077;SDS011;2557;51.390;7.494;2023-03-01T04:56:59;20.80;;;12.10;;
5077;SDS011;2557;51.390;7.494;2023-03-01T04:59:26;13.90;;;10.65;;
5077;SDS011;2557;51.390;7.494;2023-03-01T05:01:53;18.75;;;11.55;;
5077;SDS011;2557;51.390;7.494;2023-03-01T05:04:22;23.60;;;11.00;;
5077;SDS011;2557;51.390;7.494;2023-03-01T05:06:48;18.38;;;11.75;;
5077;SDS011;2557;51.390;7.494;2023-03-01T05:09:14;22.27;;;12.95;;
5077;SDS011;2557;51.390;7.494;2023-03-01T05:11:40;17.52;;;11.48;;
5077;SDS011;2557;51.390;7.494;2023-03-01T05:14:07;17.65;;;11.85;;
5077;SDS011;2557;51.390;7.494;2023-03-01T05:16:33;20.30;;;12.60;;
5077;SDS011;2557;51.390;7.494;2023-03-01T05:19:00;17.42;;;11.25;;
5077;SDS011;2557;51.390;7.494;2023-03-01T05:21:36;18.45;;;12.07;;
5077;SDS011;2557;51.390;7.494;2023-03-01T05:24:22;16.02;;;11.63;;
5077;SDS011;2557;51.390;7.494;2023-03-01T05:26:48;22.25;;;11.15;;
5077;SDS011;2557;51.390;7.494;2023-03-01T05:29:14;17.20;;;11.55;;
5077;SDS011;2557;51.390;7.494;2023-03-01T05:31:40;21.02;;;11.05;;
5077;SDS011;2557;51.390;7.494;2023-03-01T05:34:07;23.70;;;11.25;;
5077;SDS011;2557;51.390;7.494;2023-03-01T05:36:33;22.73;;;12.77;;
5077;SDS011;2557;51.390;7.494;2023-03-01T05:38:59;24.33;;;11.52;;
5077;SDS011;2557;51.390;7.494;2023-03-01T05:41:25;17.85;;;10.93;;
5077;SDS011;2557;51.390;7.494;2023-03-01T05:43:51;23.00;;;12.90;;
5077;SDS011;2557;51.390;7.494;2023-03-01T05:46:17;18.30;;;11.38;;
5077;SDS011;2557;51.390;7.494;2023-03-01T05:48:43;14.88;;;10.23;;
5077;SDS011;2557;51.390;7.494;2023-03-01T05:51:09;18.67;;;12.93;;
5077;SDS011;2557;51.390;7.494;2023-03-01T05:53:36;21.15;;;12.95;;
5077;SDS011;2557;51.390;7.494;2023-03-01T05:56:03;20.48;;;11.82;;
5077;SDS011;2557;51.390;7.494;2023-03-01T05:58:29;18.48;;;12.32;;
5077;SDS011;2557;51.390;7.494;2023-03-01T06:00:55;18.27;;;11.45;;
5077;SDS011;2557;51.390;7.494;2023-03-01T06:03:21;16.85;;;10.43;;
5077;SDS011;2557;51.390;7.494;2023-03-01T06:05:47;19.20;;;10.90;;
5077;SDS011;2557;51.390;7.494;2023-03-01T06:08:13;18.98;;;12.10;;
5077;SDS011;2557;51.390;7.494;2023-03-01T06:10:39;21.27;;;11.32;;
5077;SDS011;2557;51.390;7.494;2023-03-01T06:13:05;19.48;;;12.00;;
5077;SDS011;2557;51.390;7.494;2023-03-01T06:15:31;23.05;;;12.35;;
5077;SDS011;2557;51.390;7.494;2023-03-01T06:17:57;19.75;;;12.90;;
5077;SDS011;2557;51.390;7.494;2023-03-01T06:20:24;18.17;;;11.52;;
5077;SDS011;2557;51.390;7.494;2023-03-01T06:22:51;25.90;;;12.25;;
5077;SDS011;2557;51.390;7.494;2023-03-01T06:25:18;17.50;;;9.73;;
5077;SDS011;2557;51.390;7.494;2023-03-01T06:27:44;19.13;;;13.48;;
5077;SDS011;2557;51.390;7.494;2023-03-01T06:30:11;18.77;;;12.68;;
5077;SDS011;2557;51.390;7.494;2023-03-01T06:32:38;25.92;;;13.13;;
5077;SDS011;2557;51.390;7.494;2023-03-01T06:35:08;25.85;;;11.25;;
5077;SDS011;2557;51.390;7.494;2023-03-01T06:37:35;19.45;;;11.20;;
5077;SDS011;2557;51.390;7.494;2023-03-01T06:40:01;21.75;;;12.63;;
5077;SDS011;2557;51.390;7.494;2023-03-01T06:42:33;17.85;;;12.20;;
5077;SDS011;2557;51.390;7.494;2023-03-01T06:44:58;19.42;;;12.00;;
5077;SDS011;2557;51.390;7.494;2023-03-01T06:47:24;20.70;;;12.68;;
5077;SDS011;2557;51.390;7.494;2023-03-01T06:49:50;22.30;;;12.18;;
5077;SDS011;2557;51.390;7.494;2023-03-01T06:52:16;20.75;;;13.18;;
5077;SDS011;2557;51.390;7.494;2023-03-01T06:54:42;29.00;;;12.00;;
5077;SDS011;2557;51.390;7.494;2023-03-01T06:57:08;18.60;;;11.63;;
5077;SDS011;2557;51.390;7.494;2023-03-01T06:59:34;21.83;;;13.23;;
5077;SDS011;2557;51.390;7.494;2023-03-01T07:02:00;29.70;;;13.93;;
5077;SDS011;2557;51.390;7.494;2023-03-01T07:04:26;29.63;;;13.65;;
5077;SDS011;2557;51.390;7.494;2023-03-01T07:06:54;24.25;;;13.73;;
5077;SDS011;2557;51.390;7.494;2023-03-01T07:09:20;28.33;;;15.35;;
5077;SDS011;2557;51.390;7.494;2023-03-01T07:11:47;31.45;;;13.48;;
5077;SDS011;2557;51.390;7.494;2023-03-01T07:14:13;28.42;;;13.77;;
5077;SDS011;2557;51.390;7.494;2023-03-01T07:16:39;22.50;;;13.30;;
5077;SDS011;2557;51.390;7.494;2023-03-01T07:19:05;31.67;;;15.70;;
5077;SDS011;2557;51.390;7.494;2023-03-01T07:21:31;37.05;;;15.90;;
5077;SDS011;2557;51.390;7.494;2023-03-01T07:23:57;30.25;;;16.17;;
5077;SDS011;2557;51.390;7.494;2023-03-01T07:26:23;30.27;;;17.58;;
5077;SDS011;2557;51.390;7.494;2023-03-01T07:28:49;27.17;;;16.27;;
5077;SDS011;2557;51.390;7.494;2023-03-01T07:31:15;45.88;;;24.40;;
5077;SDS011;2557;51.390;7.494;2023-03-01T07:33:41;27.73;;;17.45;;
5077;SDS011;2557;51.390;7.494;2023-03-01T07:36:07;28.83;;;15.55;;
5077;SDS011;2557;51.390;7.494;2023-03-01T07:38:34;34.33;;;17.33;;
5077;SDS011;2557;51.390;7.494;2023-03-01T07:41:01;36.67;;;16.05;;
5077;SDS011;2557;51.390;7.494;2023-03-01T07:43:28;24.33;;;14.38;;
5077;SDS011;2557;51.390;7.494;2023-03-01T07:45:54;23.58;;;15.52;;
5077;SDS011;2557;51.390;7.494;2023-03-01T07:48:20;18.45;;;12.35;;
5077;SDS011;2557;51.390;7.494;2023-03-01T07:50:46;27.33;;;15.13;;
5077;SDS011;2557;51.390;7.494;2023-03-01T07:53:12;28.23;;;16.58;;
5077;SDS011;2557;51.390;7.494;2023-03-01T07:55:38;38.83;;;16.33;;
5077;SDS011;2557;51.390;7.494;2023-03-01T07:58:04;33.70;;;17.80;;
5077;SDS011;2557;51.390;7.494;2023-03-01T08:00:30;37.50;;;16.73;;
5077;SDS011;2557;51.390;7.494;2023-03-01T08:02:58;34.80;;;17.48;;
5077;SDS011;2557;51.390;7.494;2023-03-01T08:05:25;42.95;;;15.52;;
5077;SDS011;2557;51.390;7.494;2023-03-01T08:07:51;23.15;;;14.68;;
5077;SDS011;2557;51.390;7.494;2023-03-01T08:10:18;33.10;;;16.58;;
5077;SDS011;2557;51.390;7.494;2023-03-01T08:12:44;27.03;;;14.37;;
5077;SDS011;2557;51.390;7.494;2023-03-01T08:15:10;25.25;;;14.23;;
5077;SDS011;2557;51.390;7.494;2023-03-01T08:17:36;30.83;;;14.07;;
5077;SDS011;2557;51.390;7.494;2023-03-01T08:20:03;25.45;;;14.55;;
5077;SDS011;2557;51.390;7.494;2023-03-01T08:22:32;24.02;;;14.15;;
5077;SDS011;2557;51.390;7.494;2023-03-01T08:24:58;24.25;;;13.80;;
5077;SDS011;2557;51.390;7.494;2023-03-01T08:27:23;27.90;;;15.07;;
5077;SDS011;2557;51.390;7.494;2023-03-01T08:29:49;20.13;;;14.53;;
5077;SDS011;2557;51.390;7.494;2023-03-01T08:32:15;26.07;;;15.00;;
5077;SDS011;2557;51.390;7.494;2023-03-01T08:34:41;26.13;;;14.40;;
5077;SDS011;2557;51.390;7.494;2023-03-01T08:37:07;23.00;;;13.90;;
5077;SDS011;2557;51.390;7.494;2023-03-01T08:39:34;21.40;;;13.73;;
5077;SDS011;2557;51.390;7.494;2023-03-01T08:42:00;15.10;;;11.82;;
5077;SDS011;2557;51.390;7.494;2023-03-01T08:44:26;19.17;;;14.03;;
5077;SDS011;2557;51.390;7.494;2023-03-01T08:46:52;17.63;;;11.90;;
5077;SDS011;2557;51.390;7.494;2023-03-01T08:49:20;21.20;;;11.93;;
5077;SDS011;2557;51.390;7.494;2023-03-01T08:51:46;18.60;;;11.63;;
5077;SDS011;2557;51.390;7.494;2023-03-01T08:54:14;17.75;;;12.60;;
5077;SDS011;2557;51.390;7.494;2023-03-01T08:56:40;18.00;;;12.07;;
5077;SDS011;2557;51.390;7.494;2023-03-01T08:59:06;18.92;;;12.55;;
5077;SDS011;2557;51.390;7.494;2023-03-01T09:01:32;20.35;;;11.57;;
5077;SDS011;2557;51.390;7.494;2023-03-01T09:03:58;15.90;;;10.80;;
5077;SDS011;2557;51.390;7.494;2023-03-01T09:06:24;17.52;;;10.70;;
5077;SDS011;2557;51.390;7.494;2023-03-01T09:08:51;14.27;;;10.15;;
5077;SDS011;2557;51.390;7.494;2023-03-01T09:11:18;17.17;;;11.38;;
5077;SDS011;2557;51.390;7.494;2023-03-01T09:13:44;21.15;;;12.25;;
5077;SDS011;2557;51.390;7.494;2023-03-01T09:16:11;15.32;;;10.95;;
5077;SDS011;2557;51.390;7.494;2023-03-01T09:18:38;18.67;;;10.18;;
5077;SDS011;2557;51.390;7.494;2023-03-01T09:21:06;12.98;;;9.85;;
5077;SDS011;2557;51.390;7.494;2023-03-01T09:23:39;15.30;;;10.65;;
5077;SDS011;2557;51.390;7.494;2023-03-01T09:26:05;14.90;;;10.68;;
5077;SDS011;2557;51.390;7.494;2023-03-01T09:28:33;13.65;;;10.02;;
5077;SDS011;2557;51.390;7.494;2023-03-01T09:30:59;15.03;;;10.87;;
5077;SDS011;2557;51.390;7.494;2023-03-01T09:33:26;17.10;;;8.75;;
5077;SDS011;2557;51.390;7.494;2023-03-01T09:38:24;12.52;;;8.48;;
5077;SDS011;2557;51.390;7.494;2023-03-01T09:40:50;18.92;;;9.35;;
5077;SDS011;2557;51.390;7.494;2023-03-01T09:45:51;15.20;;;9.23;;
5077;SDS011;2557;51.390;7.494;2023-03-01T09:48:19;14.43;;;9.57;;
5077;SDS011;2557;51.390;7.494;2023-03-01T09:50:47;11.63;;;8.40;;
5077;SDS011;2557;51.390;7.494;2023-03-01T09:53:15;12.00;;;9.10;;
5077;SDS011;2557;51.390;7.494;2023-03-01T09:55:52;9.93;;;8.60;;
5077;SDS011;2557;51.390;7.494;2023-03-01T10:01:02;12.00;;;9.03;;
5077;SDS011;2557;51.390;7.494;2023-03-01T10:03:32;9.47;;;8.23;;
5077;SDS011;2557;51.390;7.494;2023-03-01T10:06:19;9.87;;;8.73;;
5077;SDS011;2557;51.390;7.494;2023-03-01T10:09:00;11.90;;;9.10;;
5077;SDS011;2557;51.390;7.494;2023-03-01T10:11:32;9.30;;;8.27;;
5077;SDS011;2557;51.390;7.494;2023-03-01T10:14:05;11.37;;;9.60;;
5077;SDS011;2557;51.390;7.494;2023-03-01T10:18:59;10.50;;;8.60;;
5077;SDS011;2557;51.390;7.494;2023-03-01T10:21:26;12.43;;;8.90;;
5077;SDS011;2557;51.390;7.494;2023-03-01T10:23:53;10.30;;;9.10;;
5077;SDS011;2557;51.390;7.494;2023-03-01T10:26:23;9.57;;;8.67;;
5077;SDS011;2557;51.390;7.494;2023-03-01T10:31:30;9.37;;;8.43;;
5077;SDS011;2557;51.390;7.494;2023-03-01T10:34:01;17.83;;;9.63;;
5077;SDS011;2557;51.390;7.494;2023-03-01T10:36:28;11.43;;;9.03;;
5077;SDS011;2557;51.390;7.494;2023-03-01T10:38:58;12.83;;;8.87;;
5077;SDS011;2557;51.390;7.494;2023-03-01T10:41:25;11.50;;;9.23;;
5077;SDS011;2557;51.390;7.494;2023-03-01T10:43:55;10.43;;;9.40;;
5077;SDS011;2557;51.390;7.494;2023-03-01T10:46:28;11.03;;;8.30;;
5077;SDS011;2557;51.390;7.494;2023-03-01T10:51:40;10.93;;;9.80;;
5077;SDS011;2557;51.390;7.494;2023-03-01T10:54:14;10.00;;;8.60;;
5077;SDS011;2557;51.390;7.494;2023-03-01T10:56:48;10.00;;;9.00;;
5077;SDS011;2557;51.390;7.494;2023-03-01T10:59:51;9.93;;;9.00;;
5077;SDS011;2557;51.390;7.494;2023-03-01T11:02:18;10.67;;;8.77;;
5077;SDS011;2557;51.390;7.494;2023-03-01T11:04:57;9.90;;;9.00;;
5077;SDS011;2557;51.390;7.494;2023-03-01T11:07:23;9.97;;;9.03;;
5077;SDS011;2557;51.390;7.494;2023-03-01T11:09:49;10.80;;;8.90;;
5077;SDS011;2557;51.390;7.494;2023-03-01T11:12:16;10.17;;;9.23;;
5077;SDS011;2557;51.390;7.494;2023-03-01T11:14:49;11.10;;;9.90;;
5077;SDS011;2557;51.390;7.494;2023-03-01T11:19:41;9.73;;;8.37;;
5077;SDS011;2557;51.390;7.494;2023-03-01T11:22:16;10.80;;;9.20;;
5077;SDS011;2557;51.390;7.494;2023-03-01T11:24:46;10.07;;;8.87;;
5077;SDS011;2557;51.390;7.494;2023-03-01T11:27:31;10.73;;;8.83;;
5077;SDS011;2557;51.390;7.494;2023-03-01T11:29:59;11.37;;;10.37;;
5077;SDS011;2557;51.390;7.494;2023-03-01T11:32:28;11.63;;;10.50;;
5077;SDS011;2557;51.390;7.494;2023-03-01T11:34:57;11.83;;;9.53;;
5077;SDS011;2557;51.390;7.494;2023-03-01T11:44:52;11.07;;;10.00;;
5077;SDS011;2557;51.390;7.494;2023-03-01T11:47:32;12.37;;;9.63;;
5077;SDS011;2557;51.390;7.494;2023-03-01T11:55:36;11.23;;;9.13;;
5077;SDS011;2557;51.390;7.494;2023-03-01T11:58:08;13.33;;;9.70;;
5077;SDS011;2557;51.390;7.494;2023-03-01T12:00:41;9.93;;;9.13;;
5077;SDS011;2557;51.390;7.494;2023-03-01T12:16:59;11.17;;;10.00;;
5077;SDS011;2557;51.390;7.494;2023-03-01T12:18:54;11.33;;;9.50;;
5077;SDS011;2557;51.390;7.494;2023-03-01T12:26:58;11.40;;;9.90;;
5077;SDS011;2557;51.390;7.494;2023-03-01T12:29:38;11.30;;;10.20;;
5077;SDS011;2557;51.390;7.494;2023-03-01T12:32:15;11.10;;;10.00;;
5077;SDS011;2557;51.390;7.494;2023-03-01T12:42:33;11.17;;;9.87;;
5077;SDS011;2557;51.390;7.494;2023-03-01T12:45:16;10.70;;;9.70;;
5077;SDS011;2557;51.390;7.494;2023-03-01T12:50:23;18.40;;;10.27;;
5077;SDS011;2557;51.390;7.494;2023-03-01T12:52:51;13.33;;;10.47;;
5077;SDS011;2557;51.390;7.494;2023-03-01T12:57:47;11.07;;;9.93;;
5077;SDS011;2557;51.390;7.494;2023-03-01T13:02:56;10.77;;;9.87;;
5077;SDS011;2557;51.390;7.494;2023-03-01T13:05:31;12.83;;;9.87;;
5077;SDS011;2557;51.390;7.494;2023-03-01T13:08:05;11.77;;;9.73;;
5077;SDS011;2557;51.390;7.494;2023-03-01T13:10:38;14.60;;;10.20;;
5077;SDS011;2557;51.390;7.494;2023-03-01T13:15:35;13.90;;;9.93;;
5077;SDS011;2557;51.390;7.494;2023-03-01T13:18:02;13.73;;;9.50;;
5077;SDS011;2557;51.390;7.494;2023-03-01T13:20:31;12.50;;;9.57;;
5077;SDS011;2557;51.390;7.494;2023-03-01T13:23:02;13.90;;;10.70;;
5077;SDS011;2557;51.390;7.494;2023-03-01T13:25:28;10.17;;;8.80;;
5077;SDS011;2557;51.390;7.494;2023-03-01T13:28:32;10.67;;;9.27;;
5077;SDS011;2557;51.390;7.494;2023-03-01T13:30:40;16.00;;;10.43;;
5077;SDS011;2557;51.390;7.494;2023-03-01T13:33:33;11.63;;;8.30;;
5077;SDS011;2557;51.390;7.494;2023-03-01T13:36:01;10.93;;;8.30;;
5077;SDS011;2557;51.390;7.494;2023-03-01T13:41:13;11.00;;;8.60;;
5077;SDS011;2557;51.390;7.494;2023-03-01T13:43:40;10.10;;;8.23;;
5077;SDS011;2557;51.390;7.494;2023-03-01T13:46:22;11.77;;;9.07;;
5077;SDS011;2557;51.390;7.494;2023-03-01T13:48:53;9.70;;;8.37;;
5077;SDS011;2557;51.390;7.494;2023-03-01T13:51:24;8.57;;;7.67;;
5077;SDS011;2557;51.390;7.494;2023-03-01T13:53:50;10.37;;;8.83;;
5077;SDS011;2557;51.390;7.494;2023-03-01T13:56:19;10.67;;;7.87;;
5077;SDS011;2557;51.390;7.494;2023-03-01T14:01:28;11.80;;;7.97;;
5077;SDS011;2557;51.390;7.494;2023-03-01T14:03:55;11.07;;;7.60;;
5077;SDS011;2557;51.390;7.494;2023-03-01T14:06:22;8.87;;;7.67;;
5077;SDS011;2557;51.390;7.494;2023-03-01T14:08:49;9.40;;;8.07;;
5077;SDS011;2557;51.390;7.494;2023-03-01T14:19:16;10.37;;;7.30;;
5077;SDS011;2557;51.390;7.494;2023-03-01T14:21:43;10.67;;;6.63;;
5077;SDS011;2557;51.390;7.494;2023-03-01T14:24:17;11.57;;;6.90;;
5077;SDS011;2557;51.390;7.494;2023-03-01T14:26:43;8.20;;;7.00;;
5077;SDS011;2557;51.390;7.494;2023-03-01T14:29:33;15.93;;;7.30;;
5077;SDS011;2557;51.390;7.494;2023-03-01T14:34:35;9.33;;;8.07;;
5077;SDS011;2557;51.390;7.494;2023-03-01T14:37:11;9.80;;;7.60;;
5077;SDS011;2557;51.390;7.494;2023-03-01T14:39:37;8.20;;;7.47;;
5077;SDS011;2557;51.390;7.494;2023-03-01T14:42:04;8.40;;;6.20;;
5077;SDS011;2557;51.390;7.494;2023-03-01T14:44:30;10.37;;;7.00;;
5077;SDS011;2557;51.390;7.494;2023-03-01T14:46:58;7.50;;;6.00;;
5077;SDS011;2557;51.390;7.494;2023-03-01T14:49:28;11.07;;;7.67;;
5077;SDS011;2557;51.390;7.494;2023-03-01T14:52:01;12.47;;;7.90;;
5077;SDS011;2557;51.390;7.494;2023-03-01T14:54:39;8.60;;;7.37;;
5077;SDS011;2557;51.390;7.494;2023-03-01T14:57:42;8.30;;;6.70;;
5077;SDS011;2557;51.390;7.494;2023-03-01T15:00:00;9.43;;;7.40;;
5077;SDS011;2557;51.390;7.494;2023-03-01T15:02:29;8.80;;;7.33;;
5077;SDS011;2557;51.390;7.494;2023-03-01T15:04:56;9.70;;;7.40;;
5077;SDS011;2557;51.390;7.494;2023-03-01T15:07:26;13.60;;;7.30;;
5077;SDS011;2557;51.390;7.494;2023-03-01T15:09:52;12.47;;;7.23;;
5077;SDS011;2557;51.390;7.494;2023-03-01T15:14:54;11.17;;;7.30;;
5077;SDS011;2557;51.390;7.494;2023-03-01T15:19:46;12.60;;;7.97;;
5077;SDS011;2557;51.390;7.494;2023-03-01T15:22:15;13.77;;;7.57;;
5077;SDS011;2557;51.390;7.494;2023-03-01T15:24:46;11.13;;;7.40;;
5077;SDS011;2557;51.390;7.494;2023-03-01T15:27:14;10.55;;;6.68;;
5077;SDS011;2557;51.390;7.494;2023-03-01T15:29:41;13.00;;;8.17;;
5077;SDS011;2557;51.390;7.494;2023-03-01T15:34:48;9.07;;;6.93;;
5077;SDS011;2557;51.390;7.494;2023-03-01T15:39:59;10.63;;;7.33;;
5077;SDS011;2557;51.390;7.494;2023-03-01T15:45:11;12.07;;;7.40;;
5077;SDS011;2557;51.390;7.494;2023-03-01T15:47:52;13.63;;;6.00;;
5077;SDS011;2557;51.390;7.494;2023-03-01T15:50:26;11.48;;;7.88;;
5077;SDS011;2557;51.390;7.494;2023-03-01T15:52:52;8.00;;;6.93;;
5077;SDS011;2557;51.390;7.494;2023-03-01T15:55:23;9.83;;;7.40;;
5077;SDS011;2557;51.390;7.494;2023-03-01T15:57:50;12.00;;;7.15;;
5077;SDS011;2557;51.390;7.494;2023-03-01T16:00:25;8.40;;;7.10;;
5077;SDS011;2557;51.390;7.494;2023-03-01T16:02:51;10.25;;;7.50;;
5077;SDS011;2557;51.390;7.494;2023-03-01T16:05:21;11.37;;;8.00;;
5077;SDS011;2557;51.390;7.494;2023-03-01T16:07:48;10.95;;;7.65;;
5077;SDS011;2557;51.390;7.494;2023-03-01T16:10:14;10.87;;;7.27;;
5077;SDS011;2557;51.390;7.494;2023-03-01T16:12:40;9.10;;;6.40;;
5077;SDS011;2557;51.390;7.494;2023-03-01T16:15:40;7.83;;;5.93;;
5077;SDS011;2557;51.390;7.494;2023-03-01T16:18:03;10.05;;;6.95;;
5077;SDS011;2557;51.390;7.494;2023-03-01T16:20:35;10.57;;;7.03;;
5077;SDS011;2557;51.390;7.494;2023-03-01T16:23:02;7.70;;;6.28;;
5077;SDS011;2557;51.390;7.494;2023-03-01T16:25:28;12.32;;;6.80;;
5077;SDS011;2557;51.390;7.494;2023-03-01T16:27:55;9.85;;;6.38;;
5077;SDS011;2557;51.390;7.494;2023-03-01T16:30:23;9.15;;;6.55;;
5077;SDS011;2557;51.390;7.494;2023-03-01T16:32:49;11.60;;;6.88;;
5077;SDS011;2557;51.390;7.494;2023-03-01T16:35:17;9.85;;;6.93;;
5077;SDS011;2557;51.390;7.494;2023-03-01T16:37:44;6.45;;;5.78;;
5077;SDS011;2557;51.390;7.494;2023-03-01T16:40:18;5.97;;;5.38;;
5077;SDS011;2557;51.390;7.494;2023-03-01T16:42:45;11.45;;;6.35;;
5077;SDS011;2557;51.390;7.494;2023-03-01T16:45:12;7.55;;;6.55;;
5077;SDS011;2557;51.390;7.494;2023-03-01T16:47:38;8.65;;;6.05;;
5077;SDS011;2557;51.390;7.494;2023-03-01T16:50:04;8.77;;;6.40;;